createdAt,value
2023-04-24T00:00:06.720Z,7.68
2023-04-24T00:02:35.321Z,8.13
2023-04-24T00:05:03.985Z,7.90
2023-04-24T00:07:31.380Z,8.73
2023-04-24T00:09:59.010Z,6.82
2023-04-24T00:12:26.984Z,8.55
2023-04-24T00:14:54.387Z,9.02
2023-04-24T00:17:22.025Z,7.70
2023-04-24T00:19:52.170Z,7.40
2023-04-24T00:22:21.810Z,6.93
2023-04-24T00:24:48.769Z,5.40
2023-04-24T00:27:15.705Z,4.20
2023-04-24T00:29:43.200Z,4.78
2023-04-24T00:32:10.574Z,4.35
2023-04-24T00:34:38.022Z,3.63
2023-04-24T00:37:05.340Z,3.60
2023-04-24T00:39:32.501Z,3.40
2023-04-24T00:42:00.100Z,2.78
2023-04-24T00:44:27.291Z,2.85
2023-04-24T00:46:56.392Z,2.38
2023-04-24T00:49:23.800Z,2.78
2023-04-24T00:51:52.314Z,2.47
2023-04-24T00:54:19.509Z,2.90
2023-04-24T00:56:47.222Z,1.90
2023-04-24T00:59:15.509Z,2.17
2023-04-24T01:01:43.201Z,2.15
2023-04-24T01:04:12.276Z,1.95
2023-04-24T01:06:44.319Z,2.00
2023-04-24T01:09:12.854Z,2.03
2023-04-24T01:11:42.639Z,1.70
2023-04-24T01:14:10.700Z,2.03
2023-04-24T01:16:39.305Z,2.55
2023-04-24T01:19:07.978Z,2.42
2023-04-24T01:21:38.574Z,2.75
2023-04-24T01:24:07.096Z,2.53
2023-04-24T01:26:34.214Z,2.00
2023-04-24T01:29:01.889Z,1.83
2023-04-24T01:31:29.877Z,1.80
2023-04-24T01:33:57.828Z,1.85
2023-04-24T01:36:27.266Z,1.83
2023-04-24T01:41:21.553Z,2.22
2023-04-24T01:43:49.866Z,1.63
2023-04-24T01:46:17.101Z,1.45
2023-04-24T01:48:46.605Z,2.28
2023-04-24T01:51:14.081Z,1.83
2023-04-24T01:53:41.168Z,1.75
2023-04-24T01:56:10.411Z,1.77
2023-04-24T01:58:37.524Z,1.73
2023-04-24T02:01:04.672Z,2.60
2023-04-24T02:03:31.977Z,1.80
2023-04-24T02:05:59.793Z,2.13
2023-04-24T02:08:26.826Z,2.20
2023-04-24T02:10:53.760Z,2.00
2023-04-24T02:13:20.784Z,2.55
2023-04-24T02:15:47.895Z,2.03
2023-04-24T02:18:15.196Z,2.08
2023-04-24T02:20:42.050Z,1.75
2023-04-24T02:23:10.391Z,2.03
2023-04-24T02:25:37.372Z,2.05
2023-04-24T02:28:04.500Z,2.17
2023-04-24T02:30:31.591Z,2.22
2023-04-24T02:32:58.612Z,2.25
2023-04-24T02:35:25.693Z,2.35
2023-04-24T02:37:52.799Z,1.70
2023-04-24T02:40:19.755Z,2.08
2023-04-24T02:42:47.969Z,2.65
2023-04-24T02:45:15.084Z,2.00
2023-04-24T02:47:42.866Z,2.08
2023-04-24T02:50:10.138Z,2.05
2023-04-24T02:52:37.264Z,2.10
2023-04-24T02:55:04.863Z,2.85
2023-04-24T02:57:31.990Z,2.33
2023-04-24T02:59:59.170Z,2.40
2023-04-24T03:02:26.376Z,2.33
2023-04-24T03:04:53.638Z,2.35
2023-04-24T03:07:21.882Z,2.58
2023-04-24T03:09:49.136Z,2.10
2023-04-24T03:12:18.154Z,2.60
2023-04-24T03:14:45.585Z,3.17
2023-04-24T03:17:12.459Z,2.50
2023-04-24T03:19:39.936Z,2.00
2023-04-24T03:22:10.691Z,2.22
2023-04-24T03:24:38.911Z,2.60
2023-04-24T03:27:06.218Z,2.63
2023-04-24T03:29:57.531Z,2.72
2023-04-24T03:32:33.397Z,3.00
2023-04-24T03:35:01.644Z,2.80
2023-04-24T03:40:20.463Z,2.72
2023-04-24T03:42:47.751Z,2.15
2023-04-24T03:45:14.984Z,2.30
2023-04-24T03:47:45.997Z,2.35
2023-04-24T03:50:13.694Z,2.90
2023-04-24T03:52:42.589Z,3.53
2023-04-24T03:55:14.531Z,4.10
2023-04-24T03:57:46.022Z,2.75
2023-04-24T04:00:22.081Z,2.50
2023-04-24T04:02:57.885Z,2.72
2023-04-24T04:05:25.416Z,2.30
2023-04-24T04:07:52.486Z,3.50
2023-04-24T04:10:19.790Z,2.97
2023-04-24T04:12:47.148Z,2.90
2023-04-24T04:15:14.947Z,3.10
2023-04-24T04:17:42.692Z,2.78
2023-04-24T04:20:12.982Z,2.92
2023-04-24T04:22:42.763Z,2.65
2023-04-24T04:25:14.730Z,2.40
2023-04-24T04:27:42.924Z,3.10
2023-04-24T04:30:13.489Z,2.97
2023-04-24T04:32:50.565Z,2.50
2023-04-24T04:35:17.791Z,2.10
2023-04-24T04:37:45.595Z,2.42
2023-04-24T04:40:32.882Z,2.08
2023-04-24T04:43:04.321Z,2.20
2023-04-24T04:45:39.917Z,1.52
2023-04-24T04:48:28.536Z,1.73
2023-04-24T04:50:59.141Z,1.80
2023-04-24T04:53:27.366Z,1.23
2023-04-24T04:55:54.494Z,2.25
2023-04-24T04:58:26.496Z,1.77
2023-04-24T05:00:58.539Z,1.80
2023-04-24T05:03:33.692Z,1.50
2023-04-24T05:06:06.312Z,1.27
2023-04-24T05:08:37.164Z,1.70
2023-04-24T05:29:31.713Z,1.75
2023-04-24T05:31:59.205Z,2.13
2023-04-24T06:09:11.227Z,2.60
2023-04-24T06:11:38.391Z,3.15
2023-04-24T06:14:06.582Z,2.72
2023-04-24T06:16:41.305Z,2.85
2023-04-24T06:19:29.189Z,2.60
2023-04-24T06:21:56.485Z,3.53
2023-04-24T06:24:23.504Z,2.63
2023-04-24T06:26:52.728Z,2.50
2023-04-24T06:29:19.854Z,3.38
2023-04-24T06:31:46.896Z,3.03
2023-04-24T06:34:13.977Z,3.05
2023-04-24T06:36:41.409Z,3.33
2023-04-24T06:39:08.524Z,2.83
2023-04-24T06:41:36.051Z,2.72
2023-04-24T06:44:03.201Z,3.67
2023-04-24T06:46:30.909Z,2.75
2023-04-24T06:48:58.053Z,3.00
2023-04-24T06:51:25.514Z,3.00
2023-04-24T06:53:53.791Z,3.25
2023-04-24T06:56:21.371Z,2.53
2023-04-24T06:58:48.944Z,3.30
2023-04-24T07:01:15.929Z,3.70
2023-04-24T07:03:43.293Z,3.50
2023-04-24T07:06:12.277Z,3.53
2023-04-24T07:08:39.950Z,3.17
2023-04-24T07:11:06.847Z,3.42
2023-04-24T07:13:36.366Z,3.55
2023-04-24T07:18:30.492Z,3.30
2023-04-24T07:20:57.563Z,3.33
2023-04-24T07:23:24.672Z,3.80
2023-04-24T07:25:51.687Z,2.70
2023-04-24T07:28:19.155Z,3.38
2023-04-24T07:30:46.203Z,3.10
2023-04-24T07:33:14.375Z,3.47
2023-04-24T07:35:41.659Z,2.87
2023-04-24T07:38:08.589Z,2.53
2023-04-24T07:40:35.560Z,2.40
2023-04-24T07:43:03.437Z,3.38
2023-04-24T07:45:32.166Z,3.50
2023-04-24T07:47:59.241Z,3.20
2023-04-24T07:50:26.462Z,3.05
2023-04-24T07:52:53.433Z,3.55
2023-04-24T07:55:22.841Z,2.75
2023-04-24T07:57:52.407Z,2.55
2023-04-24T08:00:19.764Z,2.58
2023-04-24T08:02:46.990Z,2.40
2023-04-24T08:05:14.469Z,2.53
2023-04-24T08:07:43.619Z,2.78
2023-04-24T08:10:12.526Z,3.00
2023-04-24T08:12:39.568Z,2.33
2023-04-24T08:15:07.300Z,2.95
2023-04-24T08:17:36.334Z,2.65
2023-04-24T08:20:06.139Z,3.28
2023-04-24T08:22:33.574Z,2.92
2023-04-24T08:25:01.569Z,2.35
2023-04-24T09:19:05.810Z,2.30
2023-04-24T09:21:36.653Z,2.30
2023-04-24T09:24:07.033Z,2.35
2023-04-24T09:26:37.856Z,2.28
2023-04-24T09:29:06.030Z,2.72
2023-04-24T09:31:33.457Z,2.42
2023-04-24T09:49:25.056Z,1.90
2023-04-24T10:04:18.507Z,2.40
2023-04-24T10:14:16.015Z,2.50
2023-04-24T11:27:51.210Z,2.08
2023-04-24T11:30:20.709Z,1.73
2023-04-24T11:32:54.199Z,1.92
2023-04-24T11:35:28.727Z,1.60
2023-04-24T11:40:26.798Z,1.60
2023-04-24T11:42:57.650Z,1.50
2023-04-24T11:45:28.009Z,1.65
2023-04-24T11:47:55.165Z,1.30
2023-04-24T11:50:24.551Z,1.52
2023-04-24T11:52:52.068Z,1.50
2023-04-24T11:55:19.791Z,2.08
2023-04-24T14:23:43.972Z,1.55
2023-04-24T14:26:11.055Z,1.98
2023-04-24T14:28:38.287Z,1.92
2023-04-24T14:31:05.785Z,1.95
2023-04-24T14:33:33.052Z,2.10
2023-04-24T14:36:00.013Z,1.77
2023-04-24T14:38:26.927Z,1.55
2023-04-24T19:42:42.716Z,6.03
2023-04-24T19:45:12.815Z,5.55
2023-04-24T19:47:43.444Z,5.15
2023-04-24T19:50:11.589Z,4.47
2023-04-24T19:52:41.443Z,4.43
2023-04-24T19:55:09.093Z,3.72
2023-04-24T19:57:36.940Z,3.60
2023-04-24T20:00:04.781Z,3.88
2023-04-24T20:02:33.375Z,3.75
2023-04-24T20:05:01.195Z,3.67
2023-04-24T20:07:30.568Z,4.07
2023-04-24T20:09:57.606Z,3.45
2023-04-24T20:12:24.729Z,2.85
2023-04-24T20:14:52.325Z,7.93
2023-04-24T20:17:19.361Z,2.53
2023-04-24T20:19:46.687Z,2.40
2023-04-24T20:22:13.900Z,2.30
2023-04-24T20:24:43.997Z,1.90
2023-04-24T20:27:13.241Z,2.17
2023-04-24T20:29:40.282Z,2.85
2023-04-24T20:32:07.564Z,2.85
2023-04-24T20:34:34.774Z,2.00
2023-04-24T20:37:04.189Z,2.20
2023-04-24T20:39:31.509Z,3.80
2023-04-24T20:41:58.826Z,3.05
2023-04-24T20:44:25.943Z,2.70
2023-04-24T20:46:52.926Z,2.90
2023-04-24T20:49:20.753Z,1.95
2023-04-24T20:51:47.727Z,2.15
2023-04-24T20:54:14.969Z,2.88
2023-04-24T20:56:41.900Z,2.15
2023-04-24T20:59:09.104Z,1.92
2023-04-24T21:01:36.028Z,2.25
2023-04-24T21:04:03.708Z,2.30
2023-04-24T21:06:32.003Z,2.50
2023-04-24T21:08:59.077Z,4.07
2023-04-24T21:11:26.098Z,4.10
2023-04-24T21:13:53.125Z,2.53
2023-04-24T21:16:20.925Z,2.65
2023-04-24T21:18:50.198Z,2.10
2023-04-24T21:21:17.061Z,2.08
2023-04-24T21:23:45.189Z,3.03
2023-04-24T21:26:12.057Z,4.00
2023-04-24T21:28:39.046Z,2.45
2023-04-24T21:31:05.985Z,2.17
2023-04-24T21:33:33.054Z,1.90
2023-04-24T21:36:00.042Z,2.00
2023-04-24T21:38:27.197Z,1.83
2023-04-24T21:40:54.224Z,1.73
2023-04-24T21:43:28.081Z,2.50
2023-04-24T21:46:04.685Z,2.30
2023-04-24T21:48:50.191Z,2.50
2023-04-24T21:51:18.118Z,1.70
2023-04-24T21:53:45.175Z,1.38
2023-04-24T21:56:12.246Z,1.50
2023-04-24T21:58:39.274Z,1.15
2023-04-24T22:01:06.659Z,1.20
2023-04-24T22:03:33.720Z,1.65
2023-04-24T22:06:01.166Z,1.30
2023-04-24T22:08:28.171Z,1.30
2023-04-24T22:10:55.221Z,1.00
2023-04-24T22:13:22.113Z,1.20
2023-04-24T22:15:50.897Z,1.55
2023-04-24T22:18:18.819Z,1.20
2023-04-24T22:20:46.617Z,1.15
2023-04-24T22:23:13.635Z,1.42
2023-04-24T22:25:40.667Z,1.20
2023-04-24T22:28:12.081Z,1.38
2023-04-24T22:30:39.155Z,1.40
2023-04-24T22:33:06.150Z,1.30
2023-04-24T22:35:33.205Z,1.05
2023-04-24T22:38:00.125Z,1.42
2023-04-24T22:40:28.356Z,1.73
2023-04-24T22:42:55.454Z,1.42
2023-04-24T22:45:26.171Z,1.52
2023-04-24T22:52:23.314Z,1.55
2023-04-24T22:54:50.495Z,1.60
2023-04-24T22:57:17.501Z,1.70
2023-04-24T22:59:44.460Z,1.42
2023-04-24T23:02:12.158Z,1.50
2023-04-24T23:04:39.204Z,1.75
2023-04-24T23:07:06.132Z,1.65
2023-04-24T23:09:33.528Z,1.40
2023-04-24T23:12:02.466Z,2.55
2023-04-24T23:14:29.923Z,2.72
2023-04-24T23:16:57.015Z,2.88
2023-04-24T23:19:24.164Z,2.53
2023-04-24T23:21:51.140Z,2.35
2023-04-24T23:24:18.187Z,2.83
2023-04-24T23:26:46.609Z,3.03
2023-04-24T23:29:13.463Z,2.70
2023-04-24T23:31:40.806Z,2.53
2023-04-24T23:34:07.777Z,2.85
2023-04-24T23:36:34.780Z,2.90
2023-04-24T23:39:01.969Z,2.90
2023-04-24T23:41:29.252Z,3.03
2023-04-24T23:43:56.222Z,2.88
2023-04-24T23:46:23.269Z,2.83
2023-04-24T23:48:50.173Z,3.13
2023-04-24T23:51:17.794Z,3.25
2023-04-24T23:53:44.838Z,3.05
2023-04-24T23:56:12.022Z,3.03
2023-04-24T23:58:38.910Z,2.72
